Time;durP1;ratioP1;P1;durP2;ratioP2;P2;SDS_P1;SDS_P2;PMS_P1;PMS_P2;Temp;Humidity;BMP_temperature;BMP_pressure;BME280_temperature;BME280_humidity;BME280_pressure;Samples;Min_cycle;Max_cycle;Signal;HPM_P1;HPM_P2
2022/01/30 00:03:55;;;;;;;6.82;3.90;;;;;;;;;;21079178;28;20105;-54
2022/01/30 00:14:02;;;;;;;7.50;4.73;;;;;;;;;;21079188;28;20048;-53
2022/01/30 00:24:13;;;;;;;8.40;4.10;;;;;;;;;;21078458;28;20507;-54
2022/01/30 00:34:14;;;;;;;9.15;5.00;;;;;;;;;;21078031;28;20048;-52
2022/01/30 00:44:16;;;;;;;12.95;6.68;;;;;;;;;;21077492;28;20404;-54
2022/01/30 00:54:19;;;;;;;7.82;4.43;;;;;;;;;;21076988;28;20051;-54
2022/01/30 01:04:21;;;;;;;9.93;5.20;;;;;;;;;;21087996;28;20076;-54
2022/01/30 01:24:41;;;;;;;7.57;4.07;;;;;;;;;;21090994;28;20055;-54
2022/01/30 01:34:43;;;;;;;8.95;5.00;;;;;;;;;;21090562;28;20048;-54
2022/01/30 01:44:53;;;;;;;8.43;5.03;;;;;;;;;;21091000;28;20052;-55
2022/01/30 01:54:57;;;;;;;5.57;3.30;;;;;;;;;;21088963;28;20055;-55
2022/01/30 02:05:02;;;;;;;5.70;3.45;;;;;;;;;;21088181;28;20563;-53
2022/01/30 02:25:37;;;;;;;7.40;4.93;;;;;;;;;;21088264;28;20108;-54
2022/01/30 02:35:40;;;;;;;7.47;4.45;;;;;;;;;;21086114;28;20131;-53
2022/01/30 02:45:51;;;;;;;9.27;5.15;;;;;;;;;;21086082;28;20056;-54
2022/01/30 02:55:56;;;;;;;10.07;6.38;;;;;;;;;;21085820;28;20450;-53
2022/01/30 03:05:58;;;;;;;12.88;6.75;;;;;;;;;;21085116;28;20496;-53
2022/01/30 03:16:03;;;;;;;11.55;5.90;;;;;;;;;;21083987;28;20518;-53
2022/01/30 03:26:13;;;;;;;9.50;6.05;;;;;;;;;;21083275;28;20136;-53
2022/01/30 03:36:15;;;;;;;10.35;5.05;;;;;;;;;;21082553;28;20051;-54
2022/01/30 03:46:18;;;;;;;12.15;7.00;;;;;;;;;;21081132;28;20051;-56
2022/01/30 03:56:21;;;;;;;7.55;5.45;;;;;;;;;;21085325;28;20040;-52
2022/01/30 04:06:22;;;;;;;7.93;4.47;;;;;;;;;;21080178;28;20099;-54
2022/01/30 04:16:38;;;;;;;5.87;3.63;;;;;;;;;;21079086;28;20041;-54
2022/01/30 04:26:49;;;;;;;8.05;3.95;;;;;;;;;;21078256;28;20052;-54
2022/01/30 04:37:25;;;;;;;6.70;3.92;;;;;;;;;;21088035;28;20408;-54
2022/01/30 04:58:48;;;;;;;4.85;3.10;;;;;;;;;;21094585;28;20048;-55
2022/01/30 05:09:08;;;;;;;7.22;3.35;;;;;;;;;;21092754;28;20458;-54
2022/01/30 05:19:30;;;;;;;5.30;3.72;;;;;;;;;;21092855;28;20423;-54
2022/01/30 05:29:51;;;;;;;6.35;3.22;;;;;;;;;;21090765;28;20090;-55
2022/01/30 05:39:53;;;;;;;7.53;3.20;;;;;;;;;;21090456;28;20492;-53
2022/01/30 05:50:08;;;;;;;7.47;3.40;;;;;;;;;;21088818;28;20077;-53
2022/01/30 06:00:29;;;;;;;6.35;3.75;;;;;;;;;;21096065;28;20060;-54
2022/01/30 06:10:51;;;;;;;5.72;3.15;;;;;;;;;;21098527;28;20051;-56
2022/01/30 06:21:12;;;;;;;5.10;2.70;;;;;;;;;;21088209;28;20055;-54
2022/01/30 06:31:34;;;;;;;3.85;2.45;;;;;;;;;;21088116;28;20396;-57
2022/01/30 06:41:55;;;;;;;4.70;2.80;;;;;;;;;;21086345;28;20102;-55
2022/01/30 06:52:17;;;;;;;8.07;2.78;;;;;;;;;;21083746;28;20051;-55
2022/01/30 07:02:39;;;;;;;5.25;2.75;;;;;;;;;;21083377;28;20062;-54
2022/01/30 07:13:00;;;;;;;7.68;2.92;;;;;;;;;;21084070;28;20434;-53
2022/01/30 07:23:22;;;;;;;5.40;2.97;;;;;;;;;;21084325;28;20415;-53
2022/01/30 07:33:43;;;;;;;6.88;3.10;;;;;;;;;;21082264;28;20500;-55
2022/01/30 07:44:06;;;;;;;7.53;3.13;;;;;;;;;;21081146;28;20559;-56
2022/01/30 07:54:08;;;;;;;5.57;3.50;;;;;;;;;;21080151;28;20047;-55
2022/01/30 08:04:19;;;;;;;5.07;3.10;;;;;;;;;;21079511;28;20058;-55
2022/01/30 08:14:40;;;;;;;5.28;2.78;;;;;;;;;;21078169;28;20040;-55
2022/01/30 08:24:56;;;;;;;5.78;3.40;;;;;;;;;;21078596;28;20079;-57
2022/01/30 08:35:18;;;;;;;4.00;2.50;;;;;;;;;;21077867;28;20063;-56
2022/01/30 08:45:39;;;;;;;5.28;3.03;;;;;;;;;;21077929;28;20405;-55
2022/01/30 08:56:01;;;;;;;8.43;3.92;;;;;;;;;;21078514;28;20542;-55
2022/01/30 09:06:03;;;;;;;9.55;3.97;;;;;;;;;;21076140;28;20068;-54
2022/01/30 09:16:25;;;;;;;7.65;3.70;;;;;;;;;;21077053;28;20044;-53
2022/01/30 09:26:47;;;;;;;7.30;4.00;;;;;;;;;;21087820;28;20056;-54
2022/01/30 09:37:06;;;;;;;12.13;5.50;;;;;;;;;;21090821;28;20519;-54
2022/01/30 09:47:28;;;;;;;7.07;3.63;;;;;;;;;;21089465;28;20105;-52
2022/01/30 09:57:43;;;;;;;8.63;5.00;;;;;;;;;;21090088;28;20048;-56
2022/01/30 10:07:58;;;;;;;8.40;4.27;;;;;;;;;;21087784;28;20056;-52
2022/01/30 10:18:20;;;;;;;8.23;3.80;;;;;;;;;;21088714;28;20047;-54
2022/01/30 10:28:42;;;;;;;8.65;4.28;;;;;;;;;;21086065;28;20059;-55
2022/01/30 10:39:16;;;;;;;6.57;3.50;;;;;;;;;;21086333;28;20411;-53
2022/01/30 10:49:26;;;;;;;12.23;7.18;;;;;;;;;;21083799;28;20052;-58
2022/01/30 10:59:33;;;;;;;16.15;9.65;;;;;;;;;;21083963;28;20472;-54
2022/01/30 11:09:54;;;;;;;7.28;3.70;;;;;;;;;;21083103;28;20055;-54
2022/01/30 11:19:59;;;;;;;4.45;2.70;;;;;;;;;;21081811;28;20145;-53
2022/01/30 11:30:07;;;;;;;6.25;3.10;;;;;;;;;;21081523;28;20052;-55
2022/01/30 11:40:15;;;;;;;4.97;2.67;;;;;;;;;;21080799;28;20485;-53
2022/01/30 11:50:18;;;;;;;4.28;2.58;;;;;;;;;;21079424;28;20553;-54
2022/01/30 12:00:50;;;;;;;7.43;3.15;;;;;;;;;;21078786;28;20081;-60
2022/01/30 12:10:53;;;;;;;3.97;2.50;;;;;;;;;;20904179;28;20052;-54
2022/01/30 12:20:59;;;;;;;4.75;2.38;;;;;;;;;;20903006;28;20045;-54
2022/01/30 12:31:01;;;;;;;4.97;2.40;;;;;;;;;;20902868;28;20053;-56
2022/01/30 12:41:13;;;;;;;11.20;5.40;;;;;;;;;;20948669;28;20105;-54
2022/01/30 12:51:16;;;;;;;7.93;3.55;;;;;;;;;;21077355;28;20040;-58
2022/01/30 13:01:18;;;;;;;4.68;2.80;;;;;;;;;;21090136;28;20121;-53
2022/01/30 13:11:24;;;;;;;8.60;2.80;;;;;;;;;;21092498;28;20088;-54
2022/01/30 13:21:26;;;;;;;;;;;;;;;;;;21092019;28;20052;-54
2022/01/30 13:31:30;;;;;;;6.35;3.50;;;;;;;;;;21090726;28;19920;-52
2022/01/30 13:41:36;;;;;;;4.10;2.27;;;;;;;;;;21089898;28;20067;-55
2022/01/30 13:51:38;;;;;;;4.07;3.13;;;;;;;;;;21089995;28;20447;-56
2022/01/30 14:01:41;;;;;;;9.38;5.47;;;;;;;;;;21088022;28;20109;-53
2022/01/30 14:11:45;;;;;;;15.90;7.60;;;;;;;;;;21087185;28;20067;-56
2022/01/30 14:21:51;;;;;;;5.28;2.55;;;;;;;;;;21085127;28;20048;-55
2022/01/30 14:31:57;;;;;;;6.17;2.10;;;;;;;;;;21086636;28;20134;-53
2022/01/30 14:42:01;;;;;;;9.43;5.45;;;;;;;;;;21084389;28;20063;-55
2022/01/30 14:52:04;;;;;;;4.33;2.03;;;;;;;;;;21084447;28;20052;-56
2022/01/30 15:02:07;;;;;;;3.15;1.67;;;;;;;;;;21083924;28;20056;-55
2022/01/30 15:12:12;;;;;;;1.48;0.98;;;;;;;;;;21082276;28;20052;-55
2022/01/30 15:22:14;;;;;;;4.75;1.55;;;;;;;;;;21082187;28;20063;-58
2022/01/30 15:32:15;;;;;;;4.25;2.47;;;;;;;;;;21081871;28;20060;-55
2022/01/30 15:42:18;;;;;;;3.85;1.77;;;;;;;;;;21081935;28;20412;-55
2022/01/30 15:52:19;;;;;;;1.92;1.23;;;;;;;;;;21079602;28;20530;-53
2022/01/30 16:02:21;;;;;;;3.85;1.45;;;;;;;;;;21078893;28;20101;-57
2022/01/30 16:22:45;;;;;;;5.55;1.50;;;;;;;;;;21078230;28;20044;-54
2022/01/30 16:32:48;;;;;;;4.80;1.90;;;;;;;;;;21085988;28;20044;-55
2022/01/30 16:42:50;;;;;;;2.88;1.30;;;;;;;;;;21095712;28;20476;-56
2022/01/30 16:52:53;;;;;;;3.67;1.92;;;;;;;;;;21094878;28;20100;-56
2022/01/30 17:02:55;;;;;;;6.88;4.00;;;;;;;;;;21093073;28;20385;-55
2022/01/30 17:12:59;;;;;;;6.13;2.67;;;;;;;;;;21092739;28;20044;-55
2022/01/30 17:23:01;;;;;;;7.13;4.28;;;;;;;;;;21091890;28;20048;-56
2022/01/30 17:33:04;;;;;;;9.10;4.43;;;;;;;;;;21091012;28;20397;-55
2022/01/30 17:43:06;;;;;;;9.45;4.57;;;;;;;;;;21089282;28;20056;-54
2022/01/30 17:53:08;;;;;;;15.43;6.97;;;;;;;;;;21089502;28;20048;-54
2022/01/30 18:03:11;;;;;;;12.98;7.13;;;;;;;;;;21087919;28;20044;-55
2022/01/30 18:13:13;;;;;;;17.17;8.98;;;;;;;;;;21088084;28;20121;-53
2022/01/30 18:23:15;;;;;;;19.85;10.20;;;;;;;;;;21086324;28;20056;-54
2022/01/30 18:33:18;;;;;;;19.17;7.65;;;;;;;;;;21085851;28;20048;-53
2022/01/30 18:43:20;;;;;;;9.65;5.60;;;;;;;;;;21084653;28;20052;-54
2022/01/30 18:53:22;;;;;;;16.70;6.22;;;;;;;;;;21083565;28;20059;-55
2022/01/30 19:03:23;;;;;;;13.60;5.43;;;;;;;;;;21082732;28;20063;-56
2022/01/30 19:13:25;;;;;;;8.65;4.63;;;;;;;;;;21081666;28;20097;-55
2022/01/30 19:23:26;;;;;;;10.57;4.45;;;;;;;;;;21081241;28;20109;-55
2022/01/30 19:33:28;;;;;;;8.15;3.47;;;;;;;;;;21079570;28;20044;-53
2022/01/30 19:43:30;;;;;;;9.40;3.50;;;;;;;;;;21078667;28;20105;-54
2022/01/30 19:53:31;;;;;;;15.07;4.38;;;;;;;;;;21080310;28;20113;-54
2022/01/30 20:03:33;;;;;;;9.38;4.28;;;;;;;;;;21078388;28;20437;-56
2022/01/30 20:13:38;;;;;;;7.47;3.78;;;;;;;;;;21078465;28;20067;-54
2022/01/30 20:23:40;;;;;;;13.75;6.18;;;;;;;;;;21078187;28;20366;-55
2022/01/30 20:33:42;;;;;;;7.57;4.32;;;;;;;;;;21078329;28;20126;-56
2022/01/30 20:43:43;;;;;;;10.15;5.15;;;;;;;;;;21077945;28;20062;-57
2022/01/30 20:53:45;;;;;;;9.20;4.45;;;;;;;;;;21076817;28;20045;-54
2022/01/30 21:03:47;;;;;;;8.48;4.22;;;;;;;;;;21075988;28;20048;-54
2022/01/30 21:13:51;;;;;;;9.50;4.57;;;;;;;;;;21076869;28;20048;-54
2022/01/30 21:23:53;;;;;;;6.93;3.83;;;;;;;;;;21091831;28;20411;-56
2022/01/30 21:33:55;;;;;;;8.27;3.90;;;;;;;;;;21091277;28;20039;-57
2022/01/30 21:43:57;;;;;;;11.27;5.93;;;;;;;;;;21090301;28;20063;-54
2022/01/30 21:53:59;;;;;;;7.65;4.70;;;;;;;;;;21089864;28;20119;-56
2022/01/30 22:04:01;;;;;;;11.15;4.30;;;;;;;;;;21086989;28;20052;-56
2022/01/30 22:14:04;;;;;;;8.15;5.35;;;;;;;;;;21088295;28;20044;-55
2022/01/30 22:24:06;;;;;;;14.73;7.40;;;;;;;;;;21085202;28;20052;-58
2022/01/30 22:34:08;;;;;;;12.75;6.95;;;;;;;;;;21085655;28;20123;-56
2022/01/30 22:44:09;;;;;;;13.00;5.28;;;;;;;;;;21085431;28;20044;-53
2022/01/30 22:54:11;;;;;;;10.57;4.43;;;;;;;;;;21084241;28;20052;-53
2022/01/30 23:04:13;;;;;;;10.60;4.68;;;;;;;;;;21083355;28;20472;-53
2022/01/30 23:14:15;;;;;;;14.60;7.45;;;;;;;;;;21083577;28;20048;-52
2022/01/30 23:24:18;;;;;;;9.65;5.10;;;;;;;;;;21081612;28;20105;-53
2022/01/30 23:34:19;;;;;;;11.48;4.97;;;;;;;;;;21081693;28;20051;-53
2022/01/30 23:44:25;;;;;;;6.97;3.85;;;;;;;;;;21080340;28;20048;-55
2022/01/30 23:54:27;;;;;;;7.15;3.90;;;;;;;;;;21080371;28;20047;-52
